sensor_id;sensor_type;location;lat;lon;timestamp;P1;durP1;ratioP1;P2;durP2;ratioP2
58240;SDS011;45058;55.772;38.224;2023-05-27T00:00:05;39.63;;;23.58;;
58240;SDS011;45058;55.772;38.224;2023-05-27T00:02:34;43.58;;;23.45;;
58240;SDS011;45058;55.772;38.224;2023-05-27T00:05:01;35.00;;;23.15;;
58240;SDS011;45058;55.772;38.224;2023-05-27T00:07:27;38.30;;;23.48;;
58240;SDS011;45058;55.772;38.224;2023-05-27T00:09:53;42.00;;;23.25;;
58240;SDS011;45058;55.772;38.224;2023-05-27T00:12:20;39.65;;;23.55;;
58240;SDS011;45058;55.772;38.224;2023-05-27T00:14:46;38.33;;;23.38;;
58240;SDS011;45058;55.772;38.224;2023-05-27T00:17:12;41.33;;;22.35;;
58240;SDS011;45058;55.772;38.224;2023-05-27T00:19:42;36.75;;;22.50;;
58240;SDS011;45058;55.772;38.224;2023-05-27T00:22:13;38.58;;;23.33;;
58240;SDS011;45058;55.772;38.224;2023-05-27T00:24:39;36.60;;;23.80;;
58240;SDS011;45058;55.772;38.224;2023-05-27T00:27:07;39.42;;;24.75;;
58240;SDS011;45058;55.772;38.224;2023-05-27T00:29:34;39.67;;;24.20;;
58240;SDS011;45058;55.772;38.224;2023-05-27T00:32:02;40.08;;;27.30;;
58240;SDS011;45058;55.772;38.224;2023-05-27T00:34:31;42.95;;;24.58;;
58240;SDS011;45058;55.772;38.224;2023-05-27T00:36:58;40.50;;;24.95;;
58240;SDS011;45058;55.772;38.224;2023-05-27T00:39:24;49.63;;;26.85;;
58240;SDS011;45058;55.772;38.224;2023-05-27T00:41:50;45.58;;;25.88;;
58240;SDS011;45058;55.772;38.224;2023-05-27T00:44:17;43.67;;;25.42;;
58240;SDS011;45058;55.772;38.224;2023-05-27T00:46:47;40.05;;;24.80;;
58240;SDS011;45058;55.772;38.224;2023-05-27T00:49:16;37.63;;;24.55;;
58240;SDS011;45058;55.772;38.224;2023-05-27T00:51:43;35.88;;;24.33;;
58240;SDS011;45058;55.772;38.224;2023-05-27T00:54:09;40.05;;;23.92;;
58240;SDS011;45058;55.772;38.224;2023-05-27T00:56:36;46.90;;;23.83;;
58240;SDS011;45058;55.772;38.224;2023-05-27T00:59:03;37.10;;;23.63;;
58240;SDS011;45058;55.772;38.224;2023-05-27T01:01:29;34.63;;;23.13;;
58240;SDS011;45058;55.772;38.224;2023-05-27T01:03:56;41.30;;;23.55;;
58240;SDS011;45058;55.772;38.224;2023-05-27T01:06:39;31.60;;;22.48;;
58240;SDS011;45058;55.772;38.224;2023-05-27T01:14:30;35.35;;;23.58;;
58240;SDS011;45058;55.772;38.224;2023-05-27T01:16:57;27.77;;;22.23;;
58240;SDS011;45058;55.772;38.224;2023-05-27T01:19:42;43.42;;;25.25;;
58240;SDS011;45058;55.772;38.224;2023-05-27T01:22:13;37.30;;;23.98;;
58240;SDS011;45058;55.772;38.224;2023-05-27T01:24:41;33.55;;;22.95;;
58240;SDS011;45058;55.772;38.224;2023-05-27T01:27:08;35.63;;;24.05;;
58240;SDS011;45058;55.772;38.224;2023-05-27T01:29:42;34.38;;;24.25;;
58240;SDS011;45058;55.772;38.224;2023-05-27T01:34:54;32.28;;;23.85;;
58240;SDS011;45058;55.772;38.224;2023-05-27T01:37:29;33.22;;;24.05;;
58240;SDS011;45058;55.772;38.224;2023-05-27T01:39:58;34.97;;;24.27;;
58240;SDS011;45058;55.772;38.224;2023-05-27T01:42:24;36.88;;;24.80;;
58240;SDS011;45058;55.772;38.224;2023-05-27T01:44:50;41.38;;;24.17;;
58240;SDS011;45058;55.772;38.224;2023-05-27T01:47:17;32.20;;;21.83;;
58240;SDS011;45058;55.772;38.224;2023-05-27T01:49:44;32.83;;;22.90;;
58240;SDS011;45058;55.772;38.224;2023-05-27T01:52:10;30.58;;;23.63;;
58240;SDS011;45058;55.772;38.224;2023-05-27T01:54:36;35.08;;;25.08;;
58240;SDS011;45058;55.772;38.224;2023-05-27T01:57:02;39.42;;;24.33;;
58240;SDS011;45058;55.772;38.224;2023-05-27T01:59:28;33.70;;;23.45;;
58240;SDS011;45058;55.772;38.224;2023-05-27T02:01:56;35.03;;;24.27;;
58240;SDS011;45058;55.772;38.224;2023-05-27T02:04:22;35.97;;;23.52;;
58240;SDS011;45058;55.772;38.224;2023-05-27T02:06:48;33.33;;;23.60;;
58240;SDS011;45058;55.772;38.224;2023-05-27T02:09:16;36.08;;;23.98;;
58240;SDS011;45058;55.772;38.224;2023-05-27T02:11:42;27.40;;;22.77;;
58240;SDS011;45058;55.772;38.224;2023-05-27T02:14:08;35.22;;;24.83;;
58240;SDS011;45058;55.772;38.224;2023-05-27T02:16:34;36.85;;;24.15;;
58240;SDS011;45058;55.772;38.224;2023-05-27T02:19:00;37.03;;;23.05;;
58240;SDS011;45058;55.772;38.224;2023-05-27T02:21:26;34.78;;;21.80;;
58240;SDS011;45058;55.772;38.224;2023-05-27T02:23:52;31.02;;;21.23;;
58240;SDS011;45058;55.772;38.224;2023-05-27T02:26:18;32.17;;;22.95;;
58240;SDS011;45058;55.772;38.224;2023-05-27T02:28:44;37.33;;;21.80;;
58240;SDS011;45058;55.772;38.224;2023-05-27T02:31:10;31.15;;;21.27;;
58240;SDS011;45058;55.772;38.224;2023-05-27T02:33:37;28.35;;;21.17;;
58240;SDS011;45058;55.772;38.224;2023-05-27T02:36:03;36.55;;;20.83;;
58240;SDS011;45058;55.772;38.224;2023-05-27T02:38:29;27.70;;;20.15;;
58240;SDS011;45058;55.772;38.224;2023-05-27T02:40:55;23.55;;;19.33;;
58240;SDS011;45058;55.772;38.224;2023-05-27T02:43:21;24.83;;;18.83;;
58240;SDS011;45058;55.772;38.224;2023-05-27T02:45:47;23.45;;;16.77;;
58240;SDS011;45058;55.772;38.224;2023-05-27T02:48:13;21.80;;;15.93;;
58240;SDS011;45058;55.772;38.224;2023-05-27T02:50:40;26.55;;;16.70;;
58240;SDS011;45058;55.772;38.224;2023-05-27T02:53:06;26.10;;;18.60;;
58240;SDS011;45058;55.772;38.224;2023-05-27T02:55:32;24.17;;;17.80;;
58240;SDS011;45058;55.772;38.224;2023-05-27T02:57:58;36.45;;;16.88;;
58240;SDS011;45058;55.772;38.224;2023-05-27T03:00:24;25.00;;;17.67;;
58240;SDS011;45058;55.772;38.224;2023-05-27T03:02:50;29.17;;;18.48;;
58240;SDS011;45058;55.772;38.224;2023-05-27T03:05:16;24.13;;;16.17;;
58240;SDS011;45058;55.772;38.224;2023-05-27T03:07:42;17.88;;;15.55;;
58240;SDS011;45058;55.772;38.224;2023-05-27T03:10:08;20.35;;;15.45;;
58240;SDS011;45058;55.772;38.224;2023-05-27T03:12:34;22.15;;;14.98;;
58240;SDS011;45058;55.772;38.224;2023-05-27T03:15:00;19.27;;;14.88;;
58240;SDS011;45058;55.772;38.224;2023-05-27T03:17:30;19.15;;;14.95;;
58240;SDS011;45058;55.772;38.224;2023-05-27T03:19:56;18.55;;;13.95;;
58240;SDS011;45058;55.772;38.224;2023-05-27T03:22:22;19.40;;;14.13;;
58240;SDS011;45058;55.772;38.224;2023-05-27T03:24:49;19.80;;;14.88;;
58240;SDS011;45058;55.772;38.224;2023-05-27T03:27:15;16.48;;;13.45;;
58240;SDS011;45058;55.772;38.224;2023-05-27T03:29:43;18.05;;;13.38;;
58240;SDS011;45058;55.772;38.224;2023-05-27T03:32:10;22.35;;;14.30;;
58240;SDS011;45058;55.772;38.224;2023-05-27T03:34:37;17.92;;;13.77;;
58240;SDS011;45058;55.772;38.224;2023-05-27T03:37:03;22.45;;;14.60;;
58240;SDS011;45058;55.772;38.224;2023-05-27T03:39:52;19.85;;;13.88;;
58240;SDS011;45058;55.772;38.224;2023-05-27T03:42:18;22.85;;;13.38;;
58240;SDS011;45058;55.772;38.224;2023-05-27T03:44:44;21.23;;;14.23;;
58240;SDS011;45058;55.772;38.224;2023-05-27T03:47:10;19.48;;;12.02;;
58240;SDS011;45058;55.772;38.224;2023-05-27T03:49:36;17.08;;;12.10;;
58240;SDS011;45058;55.772;38.224;2023-05-27T03:52:03;20.25;;;12.80;;
58240;SDS011;45058;55.772;38.224;2023-05-27T03:54:29;22.25;;;11.27;;
58240;SDS011;45058;55.772;38.224;2023-05-27T03:56:55;22.00;;;12.00;;
58240;SDS011;45058;55.772;38.224;2023-05-27T03:59:21;15.07;;;10.95;;
58240;SDS011;45058;55.772;38.224;2023-05-27T04:01:48;21.75;;;10.77;;
58240;SDS011;45058;55.772;38.224;2023-05-27T04:04:14;25.25;;;11.88;;
58240;SDS011;45058;55.772;38.224;2023-05-27T04:06:40;19.67;;;10.57;;
58240;SDS011;45058;55.772;38.224;2023-05-27T04:09:07;12.93;;;10.25;;
58240;SDS011;45058;55.772;38.224;2023-05-27T04:11:34;16.27;;;10.10;;
58240;SDS011;45058;55.772;38.224;2023-05-27T04:14:00;14.48;;;9.85;;
58240;SDS011;45058;55.772;38.224;2023-05-27T04:16:26;18.45;;;9.43;;
58240;SDS011;45058;55.772;38.224;2023-05-27T04:18:54;16.33;;;10.88;;
58240;SDS011;45058;55.772;38.224;2023-05-27T04:21:20;12.30;;;9.23;;
58240;SDS011;45058;55.772;38.224;2023-05-27T04:23:48;15.65;;;8.95;;
58240;SDS011;45058;55.772;38.224;2023-05-27T04:26:14;11.35;;;7.18;;
58240;SDS011;45058;55.772;38.224;2023-05-27T04:28:47;15.07;;;7.22;;
58240;SDS011;45058;55.772;38.224;2023-05-27T04:31:14;12.60;;;7.05;;
58240;SDS011;45058;55.772;38.224;2023-05-27T04:33:45;12.68;;;8.13;;
58240;SDS011;45058;55.772;38.224;2023-05-27T04:36:12;11.95;;;6.78;;
58240;SDS011;45058;55.772;38.224;2023-05-27T04:39:02;11.85;;;6.75;;
58240;SDS011;45058;55.772;38.224;2023-05-27T04:41:33;12.65;;;7.38;;
58240;SDS011;45058;55.772;38.224;2023-05-27T04:44:09;10.63;;;6.82;;
58240;SDS011;45058;55.772;38.224;2023-05-27T04:46:41;13.88;;;6.00;;
58240;SDS011;45058;55.772;38.224;2023-05-27T04:49:09;13.52;;;7.55;;
58240;SDS011;45058;55.772;38.224;2023-05-27T04:51:37;9.82;;;6.68;;
58240;SDS011;45058;55.772;38.224;2023-05-27T04:54:03;10.98;;;6.70;;
58240;SDS011;45058;55.772;38.224;2023-05-27T04:56:32;8.30;;;6.72;;
58240;SDS011;45058;55.772;38.224;2023-05-27T04:58:58;13.18;;;7.15;;
58240;SDS011;45058;55.772;38.224;2023-05-27T05:01:33;11.45;;;6.72;;
58240;SDS011;45058;55.772;38.224;2023-05-27T05:04:23;11.45;;;6.85;;
58240;SDS011;45058;55.772;38.224;2023-05-27T05:06:53;8.25;;;5.75;;
58240;SDS011;45058;55.772;38.224;2023-05-27T05:09:22;14.70;;;6.35;;
58240;SDS011;45058;55.772;38.224;2023-05-27T05:11:49;9.82;;;6.10;;
58240;SDS011;45058;55.772;38.224;2023-05-27T05:14:16;11.68;;;5.90;;
58240;SDS011;45058;55.772;38.224;2023-05-27T05:16:42;7.97;;;5.45;;
58240;SDS011;45058;55.772;38.224;2023-05-27T05:19:09;11.00;;;5.60;;
58240;SDS011;45058;55.772;38.224;2023-05-27T05:21:37;13.20;;;5.80;;
58240;SDS011;45058;55.772;38.224;2023-05-27T05:24:05;11.60;;;5.70;;
58240;SDS011;45058;55.772;38.224;2023-05-27T05:26:32;14.70;;;5.35;;
58240;SDS011;45058;55.772;38.224;2023-05-27T05:29:00;8.95;;;6.18;;
58240;SDS011;45058;55.772;38.224;2023-05-27T05:31:26;13.07;;;4.95;;
58240;SDS011;45058;55.772;38.224;2023-05-27T05:33:54;9.50;;;5.85;;
58240;SDS011;45058;55.772;38.224;2023-05-27T05:36:21;9.05;;;5.00;;
58240;SDS011;45058;55.772;38.224;2023-05-27T05:38:54;14.10;;;4.97;;
58240;SDS011;45058;55.772;38.224;2023-05-27T05:41:20;10.70;;;5.43;;
58240;SDS011;45058;55.772;38.224;2023-05-27T05:43:47;13.18;;;5.15;;
58240;SDS011;45058;55.772;38.224;2023-05-27T05:46:13;11.23;;;5.63;;
58240;SDS011;45058;55.772;38.224;2023-05-27T05:48:40;11.90;;;5.95;;
58240;SDS011;45058;55.772;38.224;2023-05-27T05:51:09;11.95;;;4.70;;
58240;SDS011;45058;55.772;38.224;2023-05-27T05:53:36;8.52;;;5.20;;
58240;SDS011;45058;55.772;38.224;2023-05-27T05:56:03;6.13;;;4.72;;
58240;SDS011;45058;55.772;38.224;2023-05-27T05:58:29;10.43;;;5.13;;
58240;SDS011;45058;55.772;38.224;2023-05-27T06:00:56;9.90;;;4.60;;
58240;SDS011;45058;55.772;38.224;2023-05-27T06:03:32;9.85;;;4.82;;
58240;SDS011;45058;55.772;38.224;2023-05-27T06:06:00;8.75;;;4.65;;
58240;SDS011;45058;55.772;38.224;2023-05-27T06:08:27;12.63;;;4.60;;
58240;SDS011;45058;55.772;38.224;2023-05-27T06:11:08;7.32;;;4.80;;
58240;SDS011;45058;55.772;38.224;2023-05-27T06:13:36;12.27;;;5.00;;
58240;SDS011;45058;55.772;38.224;2023-05-27T06:16:05;8.05;;;4.43;;
58240;SDS011;45058;55.772;38.224;2023-05-27T06:18:32;8.77;;;3.80;;
58240;SDS011;45058;55.772;38.224;2023-05-27T06:20:58;8.40;;;4.15;;
58240;SDS011;45058;55.772;38.224;2023-05-27T06:23:27;8.02;;;3.80;;
58240;SDS011;45058;55.772;38.224;2023-05-27T06:26:02;8.13;;;4.32;;
58240;SDS011;45058;55.772;38.224;2023-05-27T06:28:33;9.50;;;3.80;;
58240;SDS011;45058;55.772;38.224;2023-05-27T06:30:59;10.55;;;4.50;;
58240;SDS011;45058;55.772;38.224;2023-05-27T06:33:25;11.73;;;4.35;;
58240;SDS011;45058;55.772;38.224;2023-05-27T06:35:52;6.25;;;3.30;;
58240;SDS011;45058;55.772;38.224;2023-05-27T06:38:18;10.68;;;4.07;;
58240;SDS011;45058;55.772;38.224;2023-05-27T06:40:48;8.27;;;3.95;;
58240;SDS011;45058;55.772;38.224;2023-05-27T06:43:14;5.00;;;2.92;;
58240;SDS011;45058;55.772;38.224;2023-05-27T06:46:06;7.75;;;2.83;;
58240;SDS011;45058;55.772;38.224;2023-05-27T06:48:52;6.22;;;2.80;;
58240;SDS011;45058;55.772;38.224;2023-05-27T06:51:20;5.63;;;3.28;;
58240;SDS011;45058;55.772;38.224;2023-05-27T06:53:46;8.50;;;3.75;;
58240;SDS011;45058;55.772;38.224;2023-05-27T06:56:21;6.25;;;3.45;;
58240;SDS011;45058;55.772;38.224;2023-05-27T06:59:22;13.27;;;3.15;;
58240;SDS011;45058;55.772;38.224;2023-05-27T07:01:50;9.50;;;3.05;;
58240;SDS011;45058;55.772;38.224;2023-05-27T07:04:16;6.60;;;2.67;;
58240;SDS011;45058;55.772;38.224;2023-05-27T07:06:52;6.00;;;3.00;;
58240;SDS011;45058;55.772;38.224;2023-05-27T07:09:19;10.13;;;3.35;;
58240;SDS011;45058;55.772;38.224;2023-05-27T07:11:45;7.40;;;2.78;;
58240;SDS011;45058;55.772;38.224;2023-05-27T07:14:29;7.90;;;3.22;;
58240;SDS011;45058;55.772;38.224;2023-05-27T07:16:56;13.25;;;2.90;;
58240;SDS011;45058;55.772;38.224;2023-05-27T07:19:22;13.05;;;2.90;;
58240;SDS011;45058;55.772;38.224;2023-05-27T07:21:53;11.77;;;3.17;;
58240;SDS011;45058;55.772;38.224;2023-05-27T07:24:22;13.35;;;3.15;;
58240;SDS011;45058;55.772;38.224;2023-05-27T07:26:49;14.35;;;3.63;;
58240;SDS011;45058;55.772;38.224;2023-05-27T07:29:16;6.78;;;2.97;;
58240;SDS011;45058;55.772;38.224;2023-05-27T07:31:51;8.20;;;3.15;;
58240;SDS011;45058;55.772;38.224;2023-05-27T07:34:20;7.47;;;3.22;;
58240;SDS011;45058;55.772;38.224;2023-05-27T07:36:47;10.73;;;3.28;;
58240;SDS011;45058;55.772;38.224;2023-05-27T07:39:14;6.43;;;2.72;;
58240;SDS011;45058;55.772;38.224;2023-05-27T07:41:40;8.50;;;3.28;;
58240;SDS011;45058;55.772;38.224;2023-05-27T07:44:07;9.23;;;3.42;;
58240;SDS011;45058;55.772;38.224;2023-05-27T07:46:34;6.03;;;3.15;;
58240;SDS011;45058;55.772;38.224;2023-05-27T07:49:05;15.52;;;2.80;;
58240;SDS011;45058;55.772;38.224;2023-05-27T07:51:36;12.50;;;3.25;;
58240;SDS011;45058;55.772;38.224;2023-05-27T07:54:03;7.95;;;2.83;;
58240;SDS011;45058;55.772;38.224;2023-05-27T07:56:29;12.65;;;3.03;;
58240;SDS011;45058;55.772;38.224;2023-05-27T07:58:56;7.57;;;2.55;;
58240;SDS011;45058;55.772;38.224;2023-05-27T08:01:22;7.28;;;2.47;;
58240;SDS011;45058;55.772;38.224;2023-05-27T08:03:53;7.40;;;2.92;;
58240;SDS011;45058;55.772;38.224;2023-05-27T08:06:39;9.57;;;2.72;;
58240;SDS011;45058;55.772;38.224;2023-05-27T08:09:31;9.95;;;2.75;;
58240;SDS011;45058;55.772;38.224;2023-05-27T08:12:23;14.57;;;2.80;;
58240;SDS011;45058;55.772;38.224;2023-05-27T08:14:58;8.93;;;3.20;;
58240;SDS011;45058;55.772;38.224;2023-05-27T08:17:42;9.15;;;2.55;;
58240;SDS011;45058;55.772;38.224;2023-05-27T08:20:41;7.93;;;2.65;;
58240;SDS011;45058;55.772;38.224;2023-05-27T08:23:20;7.15;;;2.10;;
58240;SDS011;45058;55.772;38.224;2023-05-27T08:25:55;5.72;;;2.20;;
58240;SDS011;45058;55.772;38.224;2023-05-27T08:28:41;8.57;;;2.75;;
58240;SDS011;45058;55.772;38.224;2023-05-27T08:31:20;9.90;;;3.03;;
58240;SDS011;45058;55.772;38.224;2023-05-27T08:33:51;7.40;;;2.25;;
58240;SDS011;45058;55.772;38.224;2023-05-27T08:36:18;9.30;;;2.78;;
58240;SDS011;45058;55.772;38.224;2023-05-27T08:38:47;8.80;;;2.45;;
58240;SDS011;45058;55.772;38.224;2023-05-27T08:41:19;7.75;;;2.90;;
58240;SDS011;45058;55.772;38.224;2023-05-27T08:43:47;13.27;;;2.63;;
58240;SDS011;45058;55.772;38.224;2023-05-27T08:46:15;5.22;;;2.78;;
58240;SDS011;45058;55.772;38.224;2023-05-27T08:48:42;13.18;;;3.03;;
58240;SDS011;45058;55.772;38.224;2023-05-27T08:51:09;9.82;;;2.47;;
58240;SDS011;45058;55.772;38.224;2023-05-27T08:53:37;6.97;;;2.35;;
58240;SDS011;45058;55.772;38.224;2023-05-27T08:56:04;7.30;;;2.53;;
58240;SDS011;45058;55.772;38.224;2023-05-27T08:58:34;8.35;;;3.13;;
58240;SDS011;45058;55.772;38.224;2023-05-27T09:01:01;6.10;;;2.40;;
58240;SDS011;45058;55.772;38.224;2023-05-27T09:03:27;8.50;;;2.65;;
58240;SDS011;45058;55.772;38.224;2023-05-27T09:05:55;4.22;;;2.67;;
58240;SDS011;45058;55.772;38.224;2023-05-27T09:08:21;6.57;;;2.67;;
58240;SDS011;45058;55.772;38.224;2023-05-27T09:10:48;5.30;;;2.88;;
58240;SDS011;45058;55.772;38.224;2023-05-27T09:13:24;7.22;;;2.65;;
58240;SDS011;45058;55.772;38.224;2023-05-27T09:15:58;4.78;;;2.90;;
58240;SDS011;45058;55.772;38.224;2023-05-27T09:18:31;4.78;;;2.47;;
58240;SDS011;45058;55.772;38.224;2023-05-27T09:21:01;4.40;;;2.58;;
58240;SDS011;45058;55.772;38.224;2023-05-27T09:23:27;7.22;;;2.65;;
58240;SDS011;45058;55.772;38.224;2023-05-27T09:25:53;7.30;;;2.63;;
58240;SDS011;45058;55.772;38.224;2023-05-27T09:28:20;8.35;;;2.63;;
58240;SDS011;45058;55.772;38.224;2023-05-27T09:30:50;5.82;;;2.58;;
58240;SDS011;45058;55.772;38.224;2023-05-27T09:33:31;4.32;;;2.55;;
58240;SDS011;45058;55.772;38.224;2023-05-27T09:35:59;11.43;;;2.80;;
58240;SDS011;45058;55.772;38.224;2023-05-27T09:38:30;11.80;;;2.65;;
58240;SDS011;45058;55.772;38.224;2023-05-27T09:40:59;7.45;;;2.40;;
58240;SDS011;45058;55.772;38.224;2023-05-27T09:43:27;11.95;;;2.80;;
58240;SDS011;45058;55.772;38.224;2023-05-27T09:45:57;6.97;;;2.38;;
58240;SDS011;45058;55.772;38.224;2023-05-27T09:48:31;6.75;;;3.42;;
58240;SDS011;45058;55.772;38.224;2023-05-27T09:50:58;8.18;;;2.55;;
58240;SDS011;45058;55.772;38.224;2023-05-27T09:53:26;10.25;;;3.00;;
58240;SDS011;45058;55.772;38.224;2023-05-27T09:55:56;9.48;;;2.63;;
58240;SDS011;45058;55.772;38.224;2023-05-27T09:58:23;5.72;;;3.08;;
58240;SDS011;45058;55.772;38.224;2023-05-27T10:00:50;7.07;;;3.10;;
58240;SDS011;45058;55.772;38.224;2023-05-27T10:03:17;6.38;;;3.08;;
58240;SDS011;45058;55.772;38.224;2023-05-27T10:05:50;6.75;;;2.60;;
58240;SDS011;45058;55.772;38.224;2023-05-27T10:08:17;9.68;;;3.42;;
58240;SDS011;45058;55.772;38.224;2023-05-27T10:10:44;9.95;;;3.03;;
58240;SDS011;45058;55.772;38.224;2023-05-27T10:13:13;10.48;;;3.45;;
58240;SDS011;45058;55.772;38.224;2023-05-27T10:15:45;8.23;;;3.58;;
58240;SDS011;45058;55.772;38.224;2023-05-27T10:18:23;14.88;;;3.38;;
58240;SDS011;45058;55.772;38.224;2023-05-27T10:20:51;8.70;;;3.10;;
58240;SDS011;45058;55.772;38.224;2023-05-27T10:23:23;9.55;;;3.70;;
58240;SDS011;45058;55.772;38.224;2023-05-27T10:26:00;7.28;;;3.15;;
58240;SDS011;45058;55.772;38.224;2023-05-27T10:28:31;11.73;;;3.45;;
58240;SDS011;45058;55.772;38.224;2023-05-27T10:31:17;17.60;;;3.80;;
58240;SDS011;45058;55.772;38.224;2023-05-27T10:33:45;9.02;;;3.58;;
58240;SDS011;45058;55.772;38.224;2023-05-27T10:36:16;12.05;;;3.50;;
58240;SDS011;45058;55.772;38.224;2023-05-27T10:44:36;6.78;;;2.95;;
58240;SDS011;45058;55.772;38.224;2023-05-27T10:47:11;15.73;;;3.95;;
58240;SDS011;45058;55.772;38.224;2023-05-27T10:49:39;13.65;;;3.40;;
58240;SDS011;45058;55.772;38.224;2023-05-27T10:52:11;9.57;;;3.40;;
58240;SDS011;45058;55.772;38.224;2023-05-27T10:54:42;13.93;;;3.80;;
58240;SDS011;45058;55.772;38.224;2023-05-27T10:57:11;7.25;;;3.17;;
58240;SDS011;45058;55.772;38.224;2023-05-27T10:59:50;9.70;;;3.75;;
58240;SDS011;45058;55.772;38.224;2023-05-27T11:02:18;9.93;;;3.70;;
58240;SDS011;45058;55.772;38.224;2023-05-27T11:04:45;11.25;;;3.67;;
58240;SDS011;45058;55.772;38.224;2023-05-27T11:07:12;5.13;;;3.03;;
58240;SDS011;45058;55.772;38.224;2023-05-27T11:12:17;7.97;;;3.08;;
58240;SDS011;45058;55.772;38.224;2023-05-27T11:14:46;13.57;;;4.00;;
58240;SDS011;45058;55.772;38.224;2023-05-27T11:17:13;8.13;;;3.25;;
58240;SDS011;45058;55.772;38.224;2023-05-27T11:19:40;10.60;;;3.50;;
58240;SDS011;45058;55.772;38.224;2023-05-27T11:22:07;10.00;;;3.75;;
58240;SDS011;45058;55.772;38.224;2023-05-27T11:24:35;13.27;;;3.40;;
58240;SDS011;45058;55.772;38.224;2023-05-27T11:27:14;5.90;;;3.20;;
58240;SDS011;45058;55.772;38.224;2023-05-27T11:29:51;8.80;;;3.80;;
58240;SDS011;45058;55.772;38.224;2023-05-27T11:32:18;7.35;;;2.95;;
58240;SDS011;45058;55.772;38.224;2023-05-27T11:34:45;7.85;;;3.15;;
58240;SDS011;45058;55.772;38.224;2023-05-27T11:37:12;8.65;;;3.40;;
58240;SDS011;45058;55.772;38.224;2023-05-27T11:39:48;10.48;;;3.53;;
58240;SDS011;45058;55.772;38.224;2023-05-27T11:42:20;8.75;;;3.50;;
58240;SDS011;45058;55.772;38.224;2023-05-27T11:44:50;11.40;;;3.20;;
58240;SDS011;45058;55.772;38.224;2023-05-27T11:47:17;7.97;;;3.38;;
58240;SDS011;45058;55.772;38.224;2023-05-27T11:49:43;14.40;;;3.85;;
58240;SDS011;45058;55.772;38.224;2023-05-27T11:52:11;15.02;;;7.20;;
58240;SDS011;45058;55.772;38.224;2023-05-27T11:54:37;18.20;;;6.50;;
58240;SDS011;45058;55.772;38.224;2023-05-27T11:57:04;9.80;;;3.28;;
58240;SDS011;45058;55.772;38.224;2023-05-27T11:59:36;8.13;;;3.00;;
58240;SDS011;45058;55.772;38.224;2023-05-27T12:02:03;10.20;;;3.70;;
58240;SDS011;45058;55.772;38.224;2023-05-27T12:04:30;19.80;;;4.07;;
58240;SDS011;45058;55.772;38.224;2023-05-27T12:06:57;13.98;;;3.35;;
58240;SDS011;45058;55.772;38.224;2023-05-27T12:09:26;7.97;;;2.95;;
58240;SDS011;45058;55.772;38.224;2023-05-27T12:11:53;6.43;;;3.25;;
58240;SDS011;45058;55.772;38.224;2023-05-27T12:14:20;7.30;;;3.47;;
58240;SDS011;45058;55.772;38.224;2023-05-27T12:16:48;5.68;;;3.10;;
58240;SDS011;45058;55.772;38.224;2023-05-27T12:19:14;7.47;;;3.90;;
58240;SDS011;45058;55.772;38.224;2023-05-27T12:21:40;6.80;;;3.75;;
58240;SDS011;45058;55.772;38.224;2023-05-27T12:24:07;10.65;;;4.43;;
58240;SDS011;45058;55.772;38.224;2023-05-27T12:26:33;10.98;;;4.55;;
58240;SDS011;45058;55.772;38.224;2023-05-27T12:28:59;9.25;;;3.75;;
58240;SDS011;45058;55.772;38.224;2023-05-27T12:31:25;4.72;;;2.90;;
58240;SDS011;45058;55.772;38.224;2023-05-27T12:33:51;10.20;;;3.05;;
58240;SDS011;45058;55.772;38.224;2023-05-27T12:36:17;4.18;;;2.58;;
58240;SDS011;45058;55.772;38.224;2023-05-27T12:38:45;5.70;;;3.05;;
58240;SDS011;45058;55.772;38.224;2023-05-27T12:41:11;4.57;;;3.13;;
58240;SDS011;45058;55.772;38.224;2023-05-27T12:43:37;9.13;;;3.60;;
58240;SDS011;45058;55.772;38.224;2023-05-27T12:46:03;6.43;;;2.90;;
58240;SDS011;45058;55.772;38.224;2023-05-27T12:48:30;8.27;;;3.15;;
58240;SDS011;45058;55.772;38.224;2023-05-27T12:50:56;12.82;;;3.78;;
58240;SDS011;45058;55.772;38.224;2023-05-27T12:53:22;7.38;;;4.57;;
58240;SDS011;45058;55.772;38.224;2023-05-27T12:55:48;8.45;;;3.30;;
58240;SDS011;45058;55.772;38.224;2023-05-27T12:58:15;9.68;;;3.95;;
58240;SDS011;45058;55.772;38.224;2023-05-27T13:00:41;12.30;;;4.40;;
58240;SDS011;45058;55.772;38.224;2023-05-27T13:03:08;8.70;;;4.57;;
58240;SDS011;45058;55.772;38.224;2023-05-27T13:05:34;10.98;;;3.17;;
58240;SDS011;45058;55.772;38.224;2023-05-27T13:08:01;8.45;;;3.30;;
58240;SDS011;45058;55.772;38.224;2023-05-27T13:10:30;9.63;;;3.60;;
58240;SDS011;45058;55.772;38.224;2023-05-27T13:12:57;6.85;;;3.00;;
58240;SDS011;45058;55.772;38.224;2023-05-27T13:15:24;8.02;;;3.42;;
58240;SDS011;45058;55.772;38.224;2023-05-27T13:17:51;4.18;;;2.97;;
58240;SDS011;45058;55.772;38.224;2023-05-27T13:20:18;9.52;;;3.35;;
58240;SDS011;45058;55.772;38.224;2023-05-27T13:22:46;8.35;;;2.90;;
58240;SDS011;45058;55.772;38.224;2023-05-27T13:25:13;8.13;;;2.92;;
58240;SDS011;45058;55.772;38.224;2023-05-27T13:27:41;5.05;;;2.55;;
58240;SDS011;45058;55.772;38.224;2023-05-27T13:30:08;12.05;;;2.70;;
58240;SDS011;45058;55.772;38.224;2023-05-27T13:32:35;4.70;;;3.08;;
58240;SDS011;45058;55.772;38.224;2023-05-27T13:35:01;7.55;;;3.20;;
58240;SDS011;45058;55.772;38.224;2023-05-27T13:37:30;3.63;;;2.25;;
58240;SDS011;45058;55.772;38.224;2023-05-27T13:39:56;7.47;;;2.50;;
58240;SDS011;45058;55.772;38.224;2023-05-27T13:42:24;11.80;;;2.75;;
58240;SDS011;45058;55.772;38.224;2023-05-27T13:44:51;11.13;;;3.00;;
58240;SDS011;45058;55.772;38.224;2023-05-27T13:47:17;8.43;;;3.10;;
58240;SDS011;45058;55.772;38.224;2023-05-27T13:49:43;6.20;;;2.47;;
58240;SDS011;45058;55.772;38.224;2023-05-27T13:52:09;9.50;;;4.13;;
58240;SDS011;45058;55.772;38.224;2023-05-27T13:54:36;6.85;;;3.88;;
58240;SDS011;45058;55.772;38.224;2023-05-27T13:57:02;7.28;;;3.05;;
58240;SDS011;45058;55.772;38.224;2023-05-27T13:59:30;19.15;;;3.92;;
58240;SDS011;45058;55.772;38.224;2023-05-27T14:01:56;11.27;;;3.22;;
58240;SDS011;45058;55.772;38.224;2023-05-27T14:04:22;9.50;;;2.67;;
58240;SDS011;45058;55.772;38.224;2023-05-27T14:06:48;7.75;;;2.60;;
58240;SDS011;45058;55.772;38.224;2023-05-27T14:09:15;11.52;;;3.03;;
58240;SDS011;45058;55.772;38.224;2023-05-27T14:11:41;4.40;;;2.53;;
58240;SDS011;45058;55.772;38.224;2023-05-27T14:14:07;12.95;;;3.22;;
58240;SDS011;45058;55.772;38.224;2023-05-27T14:16:33;7.22;;;2.95;;
58240;SDS011;45058;55.772;38.224;2023-05-27T14:18:59;7.80;;;3.25;;
58240;SDS011;45058;55.772;38.224;2023-05-27T14:21:25;10.23;;;3.67;;
58240;SDS011;45058;55.772;38.224;2023-05-27T14:23:51;7.10;;;3.08;;
58240;SDS011;45058;55.772;38.224;2023-05-27T14:26:18;6.43;;;3.30;;
58240;SDS011;45058;55.772;38.224;2023-05-27T14:28:44;4.82;;;2.80;;
58240;SDS011;45058;55.772;38.224;2023-05-27T14:31:10;6.75;;;3.50;;
58240;SDS011;45058;55.772;38.224;2023-05-27T14:33:36;7.72;;;2.80;;
58240;SDS011;45058;55.772;38.224;2023-05-27T14:36:02;6.70;;;3.13;;
58240;SDS011;45058;55.772;38.224;2023-05-27T14:38:29;11.25;;;3.20;;
58240;SDS011;45058;55.772;38.224;2023-05-27T14:40:55;8.40;;;3.00;;
58240;SDS011;45058;55.772;38.224;2023-05-27T14:43:21;6.35;;;2.90;;
58240;SDS011;45058;55.772;38.224;2023-05-27T14:45:47;10.05;;;3.03;;
58240;SDS011;45058;55.772;38.224;2023-05-27T14:48:13;7.63;;;2.80;;